Time;durP1;ratioP1;P1;durP2;ratioP2;P2;SDS_P1;SDS_P2;PMS_P1;PMS_P2;Temp;Humidity;BMP_temperature;BMP_pressure;BME280_temperature;BME280_humidity;BME280_pressure;Samples;Min_cycle;Max_cycle;Signal;HPM_P1;HPM_P2
2022/10/30 00:02:00;;;;;;;16.15;10.77;;;;;;;16.22;93.84;100482.94;10395946;28;20045;-73
2022/10/30 00:07:02;;;;;;;13.82;11.32;;;;;;;16.07;94.97;100478.09;10398477;28;20068;-72
2022/10/30 00:12:03;;;;;;;16.20;11.68;;;;;;;16.03;95.46;100473.19;10395186;28;20053;-73
2022/10/30 00:17:05;;;;;;;17.40;11.52;;;;;;;15.92;95.86;100457.31;10397963;28;20132;-73
2022/10/30 00:22:06;;;;;;;12.75;10.80;;;;;;;15.97;95.82;100465.75;10398547;28;20049;-74
2022/10/30 00:27:07;;;;;;;12.23;10.97;;;;;;;15.82;95.70;100452.88;10393317;28;20048;-73
2022/10/30 00:32:08;;;;;;;14.40;10.57;;;;;;;15.84;95.79;100461.63;10397419;28;20482;-75
2022/10/30 00:37:09;;;;;;;14.77;11.63;;;;;;;15.77;96.05;100459.66;10402736;28;20056;-75
2022/10/30 00:42:13;;;;;;;14.45;12.30;;;;;;;15.83;95.81;100462.59;10392569;28;20627;-73
2022/10/30 00:47:30;;;;;;;15.82;11.27;;;;;;;15.86;95.44;100464.97;10392198;28;20467;-73
2022/10/30 00:52:39;;;;;;;15.85;12.70;;;;;;;15.85;94.62;100466.00;10416747;28;20045;-73
2022/10/30 00:57:42;;;;;;;14.82;11.43;;;;;;;15.93;93.86;100464.34;10393576;28;20436;-74
2022/10/30 01:02:44;;;;;;;12.90;11.02;;;;;;;15.96;93.03;100469.41;10394624;28;20056;-73
2022/10/30 01:07:46;;;;;;;16.25;12.30;;;;;;;15.90;93.38;100458.31;10392585;28;20050;-70
2022/10/30 01:12:50;;;;;;;14.27;11.63;;;;;;;16.00;92.39;100460.06;10393839;28;20088;-71
2022/10/30 01:18:13;;;;;;;18.20;11.35;;;;;;;15.96;91.93;100447.94;10395167;28;20040;-76
2022/10/30 01:23:47;;;;;;;14.90;11.70;;;;;;;15.99;91.50;100463.75;10389187;28;20531;-72
2022/10/30 01:29:06;;;;;;;13.88;11.95;;;;;;;15.86;92.18;100448.88;10391732;28;20053;-72
2022/10/30 01:34:18;;;;;;;13.27;10.65;;;;;;;15.79;93.34;100453.16;10393561;28;20068;-71
2022/10/30 01:39:26;;;;;;;12.20;10.75;;;;;;;15.84;92.84;100460.78;10394744;28;20443;-73
2022/10/30 01:44:31;;;;;;;13.30;12.02;;;;;;;15.81;92.67;100445.81;10390983;28;20045;-71
2022/10/30 01:50:03;;;;;;;12.68;11.23;;;;;;;15.75;93.04;100438.34;10403911;28;20048;-74
2022/10/30 01:55:36;;;;;;;12.98;10.82;;;;;;;15.60;94.01;100435.34;10398477;28;20051;-72
2022/10/30 02:00:40;;;;;;;13.93;11.23;;;;;;;15.71;93.07;100437.78;10388431;28;20056;-74
2022/10/30 02:05:46;;;;;;;13.93;10.45;;;;;;;15.78;92.95;100443.44;10395838;28;20167;-71
2022/10/30 02:10:51;;;;;;;14.95;10.85;;;;;;;15.71;93.07;100436.97;10391007;28;20214;-71
2022/10/30 02:15:52;;;;;;;;;;;;;;;15.66;93.84;100433.91;10393150;28;20053;-74
2022/10/30 02:20:53;;;;;;;15.65;9.50;;;;;;;15.79;93.12;100438.91;10394391;28;19960;-72
2022/10/30 02:25:54;;;;;;;14.82;9.70;;;;;;;15.85;92.47;100452.56;10392578;28;20053;-75
2022/10/30 02:30:56;;;;;;;18.30;12.15;;;;;;;15.72;92.69;100441.34;10395220;28;20068;-74
2022/10/30 02:35:57;;;;;;;14.77;10.57;;;;;;;15.65;92.96;100448.31;10389449;28;20053;-73
2022/10/30 02:40:59;;;;;;;11.32;9.85;;;;;;;15.59;93.55;100446.22;10394340;28;20164;-73
2022/10/30 02:46:00;;;;;;;13.90;10.88;;;;;;;15.62;92.97;100454.81;10430418;28;20048;-75
2022/10/30 02:51:03;;;;;;;12.23;9.88;;;;;;;15.58;93.58;100445.38;10443207;28;20113;-74
2022/10/30 02:56:11;;;;;;;12.88;9.73;;;;;;;15.64;93.66;100454.66;10456931;28;20055;-80
2022/10/30 03:01:15;;;;;;;16.15;9.63;;;;;;;15.67;93.07;100449.84;10432649;28;20048;-74
2022/10/30 03:06:17;;;;;;;11.50;9.90;;;;;;;15.56;93.70;100452.72;10431753;28;20236;-74
2022/10/30 03:11:19;;;;;;;15.15;10.13;;;;;;;15.53;94.40;100464.59;10388765;28;20053;-73
2022/10/30 03:16:23;;;;;;;12.63;9.68;;;;;;;15.47;94.67;100443.75;10393261;28;20045;-74
2022/10/30 03:21:26;;;;;;;17.48;10.68;;;;;;;15.48;95.29;100448.13;10398603;28;20054;-72
2022/10/30 03:26:29;;;;;;;13.27;10.23;;;;;;;15.54;94.82;100446.69;10410260;28;20515;-72
2022/10/30 03:31:31;;;;;;;14.73;8.85;;;;;;;15.50;95.77;100440.75;10413831;28;20048;-75
2022/10/30 03:36:32;;;;;;;17.15;9.55;;;;;;;15.59;94.88;100451.59;10400953;28;20684;-74
2022/10/30 03:41:34;;;;;;;9.73;8.00;;;;;;;15.67;94.08;100457.03;10402100;28;20045;-73
2022/10/30 03:46:35;;;;;;;12.02;8.75;;;;;;;15.56;94.38;100453.56;10406810;28;20060;-75
2022/10/30 03:51:36;;;;;;;14.63;8.80;;;;;;;15.58;94.39;100455.25;10396685;28;20666;-74
2022/10/30 03:56:38;;;;;;;14.68;9.30;;;;;;;15.48;94.81;100452.66;10394451;28;20042;-74
2022/10/30 04:01:39;;;;;;;13.05;9.57;;;;;;;15.34;95.86;100443.25;10430097;28;20067;-73
2022/10/30 04:06:40;;;;;;;16.30;9.18;;;;;;;15.29;95.84;100448.25;10427603;28;20056;-73
2022/10/30 04:11:42;;;;;;;10.60;8.32;;;;;;;15.24;96.24;100453.19;10434348;28;20049;-74
2022/10/30 04:16:44;;;;;;;15.60;9.85;;;;;;;15.20;96.34;100441.94;10438685;28;20060;-74
2022/10/30 04:21:46;;;;;;;12.57;9.02;;;;;;;15.17;96.21;100453.78;10422824;28;20053;-74
2022/10/30 04:26:49;;;;;;;11.82;8.55;;;;;;;15.12;96.33;100453.41;10437896;28;20138;-75
2022/10/30 04:31:50;;;;;;;12.18;9.55;;;;;;;15.11;96.37;100451.69;10435477;28;20052;-74
2022/10/30 04:36:51;;;;;;;15.70;9.65;;;;;;;15.09;95.87;100450.19;10417110;28;21169;-73
2022/10/30 04:41:53;;;;;;;12.43;9.43;;;;;;;15.05;95.54;100441.56;10434166;28;20048;-72
2022/10/30 04:46:54;;;;;;;13.05;8.80;;;;;;;15.04;96.00;100437.19;10418413;28;20647;-74
2022/10/30 04:51:55;;;;;;;12.07;9.50;;;;;;;14.98;96.18;100437.78;10418030;28;20144;-72
2022/10/30 04:56:57;;;;;;;11.60;9.32;;;;;;;14.95;96.15;100438.09;10434747;28;20072;-73
2022/10/30 05:01:58;;;;;;;14.45;9.68;;;;;;;15.00;95.73;100441.19;10437944;28;20077;-73
2022/10/30 05:07:01;;;;;;;10.98;9.02;;;;;;;15.01;94.70;100438.34;10420792;28;20511;-73
2022/10/30 05:12:02;;;;;;;12.43;9.90;;;;;;;14.92;94.41;100443.75;10438724;28;20049;-76
2022/10/30 05:17:03;;;;;;;11.23;9.45;;;;;;;14.87;94.43;100427.28;10437055;28;20080;-74
2022/10/30 05:22:05;;;;;;;11.68;9.60;;;;;;;14.90;94.35;100445.75;10422360;28;20056;-73
2022/10/30 05:27:07;;;;;;;13.13;9.57;;;;;;;14.83;93.96;100429.38;10393814;28;20045;-73
2022/10/30 05:32:08;;;;;;;12.52;9.68;;;;;;;14.82;94.36;100436.59;10396483;28;20057;-73
2022/10/30 05:37:09;;;;;;;11.07;9.23;;;;;;;14.84;94.10;100426.56;10394948;28;20057;-73
2022/10/30 05:42:10;;;;;;;9.73;8.07;;;;;;;14.81;94.02;100432.22;10394434;28;20063;-72
2022/10/30 05:47:15;;;;;;;9.97;8.87;;;;;;;14.75;94.59;100437.31;10397764;28;20131;-75
2022/10/30 05:52:16;;;;;;;10.07;8.13;;;;;;;14.79;94.69;100425.34;10397565;28;20057;-75
2022/10/30 05:57:17;;;;;;;9.90;8.82;;;;;;;14.75;94.70;100432.81;10411640;28;20052;-74
2022/10/30 06:02:19;;;;;;;17.42;8.98;;;;;;;14.82;95.56;100439.28;10400663;28;20626;-73
2022/10/30 06:07:20;;;;;;;10.27;8.10;;;;;;;14.89;93.42;100444.88;10397777;28;20053;-72
2022/10/30 06:12:22;;;;;;;13.80;9.15;;;;;;;14.77;94.33;100452.28;10387138;28;20045;-74
2022/10/30 06:17:23;;;;;;;10.35;8.82;;;;;;;14.78;94.57;100456.63;10384570;28;20064;-72
2022/10/30 06:22:24;;;;;;;9.07;8.00;;;;;;;14.83;94.42;100450.81;10370304;28;20060;-74
2022/10/30 06:27:25;;;;;;;9.85;8.65;;;;;;;14.84;94.38;100458.72;10371813;28;20080;-72
2022/10/30 06:32:27;;;;;;;12.65;8.15;;;;;;;14.82;94.80;100460.72;10376579;28;20232;-73
2022/10/30 06:37:29;;;;;;;10.70;7.80;;;;;;;14.82;94.60;100466.06;10362051;28;20052;-71
2022/10/30 06:42:30;;;;;;;13.70;9.00;;;;;;;14.95;94.01;100465.75;10362264;28;20942;-75
2022/10/30 06:47:34;;;;;;;11.57;8.05;;;;;;;14.90;94.29;100470.69;10357217;28;20045;-74
2022/10/30 06:52:35;;;;;;;11.52;8.48;;;;;;;15.01;93.85;100485.75;10361896;28;20052;-72
2022/10/30 06:57:37;;;;;;;12.15;8.93;;;;;;;15.06;94.01;100477.25;10364616;28;20041;-70
2022/10/30 07:02:38;;;;;;;12.32;8.73;;;;;;;14.98;94.11;100475.31;10367594;28;20056;-72
2022/10/30 07:07:39;;;;;;;14.07;8.27;;;;;;;15.09;94.20;100472.47;10365392;28;20052;-74
2022/10/30 07:12:41;;;;;;;12.20;9.50;;;;;;;15.10;94.32;100475.97;10370699;28;20159;-73
2022/10/30 07:17:42;;;;;;;12.20;8.85;;;;;;;15.11;94.48;100473.16;10372850;28;21752;-72
2022/10/30 07:22:43;;;;;;;13.63;9.07;;;;;;;15.16;94.53;100473.56;10384375;28;20060;-72
2022/10/30 07:27:47;;;;;;;11.57;8.63;;;;;;;15.36;93.74;100487.72;10389456;28;20052;-73
2022/10/30 07:33:02;;;;;;;10.80;8.47;;;;;;;15.43;92.41;100487.94;10399816;28;20064;-72
2022/10/30 07:38:05;;;;;;;9.50;8.27;;;;;;;15.62;91.07;100494.22;10405704;28;21036;-71
2022/10/30 07:43:12;;;;;;;11.30;8.30;;;;;;;15.85;89.72;100498.22;10409780;28;20053;-72
2022/10/30 07:48:13;;;;;;;11.23;8.73;;;;;;;15.90;89.24;100487.84;10399759;28;20049;-78
2022/10/30 07:53:14;;;;;;;10.30;8.77;;;;;;;15.92;88.39;100489.53;10414071;28;20087;-72
2022/10/30 07:58:15;;;;;;;9.40;8.40;;;;;;;15.93;88.39;100501.94;10416798;28;20340;-72
2022/10/30 08:03:17;;;;;;;12.48;8.40;;;;;;;15.92;87.98;100509.16;10402653;28;20065;-72
2022/10/30 08:08:18;;;;;;;11.05;8.65;;;;;;;16.02;86.57;100503.75;10420982;28;20045;-71
2022/10/30 08:13:19;;;;;;;12.95;9.25;;;;;;;16.07;86.64;100501.44;10415773;28;20059;-72
2022/10/30 08:18:20;;;;;;;13.68;8.48;;;;;;;16.09;86.35;100496.72;10414375;28;20057;-74
2022/10/30 08:23:22;;;;;;;10.50;8.32;;;;;;;16.20;86.82;100504.56;10412529;28;20780;-72
2022/10/30 08:28:23;;;;;;;13.93;8.88;;;;;;;16.32;85.34;100505.19;10414300;28;20497;-73
2022/10/30 08:33:32;;;;;;;9.93;8.73;;;;;;;16.47;84.91;100510.84;10417243;28;20609;-72
2022/10/30 08:38:33;;;;;;;11.63;8.90;;;;;;;16.63;84.49;100504.75;10416922;28;20059;-74
2022/10/30 08:43:34;;;;;;;13.18;8.60;;;;;;;16.99;83.07;100510.03;10413451;28;20064;-73
2022/10/30 08:48:35;;;;;;;13.38;9.95;;;;;;;17.36;81.71;100506.19;10414080;28;20051;-71
2022/10/30 08:53:37;;;;;;;15.57;10.00;;;;;;;17.80;78.71;100508.69;10395461;28;20049;-72
2022/10/30 08:58:38;;;;;;;12.90;9.00;;;;;;;18.20;76.67;100515.19;10395156;28;20052;-72
2022/10/30 09:03:41;;;;;;;12.35;8.65;;;;;;;18.78;74.21;100500.84;10382090;28;20125;-76
2022/10/30 09:08:44;;;;;;;11.73;8.60;;;;;;;19.34;72.20;100496.34;10387136;28;20041;-72
2022/10/30 09:13:45;;;;;;;16.92;8.52;;;;;;;19.88;69.41;100505.56;10394088;28;20041;-73
2022/10/30 09:18:47;;;;;;;14.35;9.45;;;;;;;20.47;68.59;100491.44;10396160;28;20173;-73
2022/10/30 09:23:48;;;;;;;12.70;9.88;;;;;;;20.89;65.85;100490.03;10386775;28;20050;-74
2022/10/30 09:28:50;;;;;;;13.40;10.27;;;;;;;21.48;64.59;100488.31;10387738;28;20375;-73
2022/10/30 09:33:51;;;;;;;17.23;9.32;;;;;;;22.28;60.73;100494.66;10392736;28;20049;-73
2022/10/30 09:38:54;;;;;;;13.98;8.95;;;;;;;23.63;55.50;100487.19;10394766;28;20053;-75
2022/10/30 09:44:31;;;;;;;13.43;9.10;;;;;;;25.40;51.46;100496.84;10385381;28;20061;-72
2022/10/30 09:49:49;;;;;;;12.00;9.38;;;;;;;27.37;46.39;100494.13;10393080;28;20045;-72
2022/10/30 09:55:08;;;;;;;14.05;7.72;;;;;;;27.47;44.90;100489.81;10385630;28;20389;-74
2022/10/30 10:00:22;;;;;;;11.05;8.32;;;;;;;26.42;46.51;100480.53;10396859;28;20048;-74
2022/10/30 10:05:28;;;;;;;15.02;7.03;;;;;;;26.57;46.48;100479.34;10396041;28;20052;-74
2022/10/30 10:10:45;;;;;;;13.32;7.38;;;;;;;27.32;44.33;100486.56;10401624;28;20177;-74
2022/10/30 10:15:50;;;;;;;12.15;7.22;;;;;;;28.83;41.59;100484.81;10402113;28;20816;-74
2022/10/30 10:20:55;;;;;;;9.77;6.40;;;;;;;31.57;36.09;100478.28;10398350;28;20053;-74
2022/10/30 10:25:59;;;;;;;13.48;7.07;;;;;;;33.50;32.54;100470.09;10392515;28;20065;-75
2022/10/30 10:31:12;;;;;;;8.98;6.03;;;;;;;34.67;29.46;100464.94;10397409;28;20049;-75
2022/10/30 10:36:30;;;;;;;12.30;6.88;;;;;;;36.13;27.85;100458.44;10398701;28;20666;-73
2022/10/30 10:41:37;;;;;;;9.52;6.03;;;;;;;36.92;26.62;100456.31;10394437;28;20186;-75
2022/10/30 10:47:08;;;;;;;11.50;5.45;;;;;;;37.57;25.66;100448.56;10384997;28;20624;-76
2022/10/30 10:52:32;;;;;;;8.25;5.90;;;;;;;38.07;25.03;100434.97;10378486;28;20045;-77
2022/10/30 10:57:37;;;;;;;8.68;5.35;;;;;;;37.80;23.97;100431.00;10384205;28;20071;-75
2022/10/30 11:03:12;;;;;;;8.98;4.93;;;;;;;38.94;22.96;100424.22;10377580;28;20054;-74
2022/10/30 11:08:25;;;;;;;6.70;4.90;;;;;;;39.65;22.21;100429.38;10380987;28;20111;-76
2022/10/30 11:13:36;;;;;;;7.63;4.90;;;;;;;39.71;21.71;100419.75;10380250;28;20049;-75
2022/10/30 11:18:38;;;;;;;9.85;4.35;;;;;;;40.62;21.78;100405.72;10383936;28;20291;-74
2022/10/30 11:23:45;;;;;;;7.75;4.07;;;;;;;41.29;19.85;100403.75;10388299;28;20052;-73
2022/10/30 11:29:11;;;;;;;8.05;4.50;;;;;;;41.57;20.10;100403.44;10390388;28;20050;-73
2022/10/30 11:34:18;;;;;;;9.02;4.30;;;;;;;42.44;19.41;100396.88;10363933;28;20052;-76
2022/10/30 11:39:23;;;;;;;11.90;4.20;;;;;;;42.66;18.11;100393.00;10370543;28;20049;-74
2022/10/30 11:44:29;;;;;;;8.25;4.43;;;;;;;43.02;17.52;100378.47;10394656;28;20046;-75
2022/10/30 11:49:56;;;;;;;7.13;3.60;;;;;;;44.42;16.58;100387.53;10414305;28;20067;-74
2022/10/30 11:55:12;;;;;;;10.25;4.28;;;;;;;44.36;16.31;100378.53;10398756;28;20125;-74
2022/10/30 12:00:21;;;;;;;8.13;4.30;;;;;;;44.92;16.39;100377.09;10414283;28;20644;-74
2022/10/30 12:05:41;;;;;;;4.75;3.08;;;;;;;45.29;15.53;100363.00;10400360;28;20056;-73
2022/10/30 12:10:56;;;;;;;4.97;2.72;;;;;;;44.34;16.27;100366.00;10391340;28;20079;-73
2022/10/30 12:16:17;;;;;;;6.20;3.00;;;;;;;43.50;16.30;100365.09;10385098;28;20602;-72
2022/10/30 12:21:19;;;;;;;9.18;3.05;;;;;;;43.36;16.55;100364.53;10366358;28;20053;-75
2022/10/30 12:26:22;;;;;;;7.70;3.55;;;;;;;42.68;16.79;100346.72;10359974;28;20065;-75
2022/10/30 12:31:33;;;;;;;6.00;3.20;;;;;;;41.32;17.80;100350.06;10373096;28;20056;-75
2022/10/30 12:36:43;;;;;;;9.27;3.92;;;;;;;40.37;19.39;100341.13;10364930;28;20065;-72
2022/10/30 12:42:09;;;;;;;8.13;3.30;;;;;;;40.10;19.21;100334.63;10372829;28;20310;-74
2022/10/30 12:47:26;;;;;;;6.13;3.22;;;;;;;41.12;18.67;100343.97;10384920;28;20049;-74
2022/10/30 12:52:36;;;;;;;11.90;3.53;;;;;;;40.28;18.80;100321.59;10368519;28;20208;-73
2022/10/30 12:57:53;;;;;;;8.50;3.28;;;;;;;42.13;16.86;100328.88;10368949;28;20551;-74
2022/10/30 13:03:04;;;;;;;6.82;3.83;;;;;;;42.49;16.71;100330.38;10361498;28;20080;-75
2022/10/30 13:08:31;;;;;;;8.32;3.00;;;;;;;42.66;16.19;100317.47;10372937;28;20041;-73
2022/10/30 13:13:38;;;;;;;8.00;2.70;;;;;;;43.11;16.39;100314.03;10362698;28;20049;-74
2022/10/30 13:18:39;;;;;;;5.80;3.70;;;;;;;43.65;15.70;100315.19;10352250;28;20068;-73
2022/10/30 13:23:46;;;;;;;8.57;3.10;;;;;;;43.47;15.28;100318.16;10368503;28;20057;-76
2022/10/30 13:29:04;;;;;;;5.33;2.63;;;;;;;42.34;16.55;100314.16;10378782;28;20404;-77
2022/10/30 13:34:35;;;;;;;5.63;3.10;;;;;;;41.68;17.27;100304.19;10369164;28;21355;-75
2022/10/30 13:40:13;;;;;;;5.78;2.88;;;;;;;40.97;17.27;100305.34;10370559;28;20423;-75
2022/10/30 13:45:23;;;;;;;;;;;;;;;40.93;18.07;100313.59;10369936;28;20053;-76
2022/10/30 13:50:36;;;;;;;8.02;3.72;;;;;;;38.22;20.02;100308.88;10369779;28;19953;-76
2022/10/30 13:55:40;;;;;;;4.22;3.00;;;;;;;38.55;20.98;100311.53;10397438;28;20060;-75
2022/10/30 14:01:04;;;;;;;7.13;3.10;;;;;;;37.60;21.24;100309.13;10408751;28;20055;-74
2022/10/30 14:06:38;;;;;;;7.63;3.97;;;;;;;36.43;23.16;100305.75;10390066;28;21175;-75
2022/10/30 14:11:40;;;;;;;9.75;3.85;;;;;;;34.52;24.46;100314.63;10409204;28;20162;-75
2022/10/30 14:16:44;;;;;;;8.23;2.97;;;;;;;32.47;28.49;100308.94;10414229;28;20469;-75
2022/10/30 14:21:54;;;;;;;6.78;3.30;;;;;;;31.12;29.87;100306.19;10412936;28;20053;-74
2022/10/30 14:27:04;;;;;;;6.88;3.45;;;;;;;29.52;33.57;100314.09;10416350;28;20521;-72
2022/10/30 14:32:12;;;;;;;8.02;3.90;;;;;;;28.79;33.62;100314.63;10405549;28;21519;-74
2022/10/30 14:37:13;;;;;;;8.63;4.13;;;;;;;28.33;34.90;100314.47;10401666;28;20064;-72
2022/10/30 14:42:27;;;;;;;8.75;4.60;;;;;;;27.42;36.99;100330.28;10388369;28;20600;-73
2022/10/30 14:47:31;;;;;;;13.70;7.03;;;;;;;26.44;39.96;100325.59;10391030;28;20047;-71
2022/10/30 14:52:51;;;;;;;8.55;5.07;;;;;;;25.73;42.36;100321.41;10403755;28;20068;-71
2022/10/30 14:58:23;;;;;;;9.40;6.30;;;;;;;25.33;43.31;100325.25;10405874;28;20614;-71
2022/10/30 15:03:42;;;;;;;8.00;5.40;;;;;;;24.99;44.72;100326.47;10406281;28;20410;-71
2022/10/30 15:09:07;;;;;;;10.10;6.35;;;;;;;24.78;45.70;100323.00;10408071;28;20052;-71
2022/10/30 15:14:22;;;;;;;7.40;5.50;;;;;;;24.50;47.22;100324.13;10411925;28;20482;-69
2022/10/30 15:19:41;;;;;;;10.73;5.88;;;;;;;24.19;48.40;100322.09;10404303;28;20560;-70
2022/10/30 15:24:42;;;;;;;7.85;6.32;;;;;;;24.04;49.39;100329.66;10403715;28;20571;-70
2022/10/30 15:29:51;;;;;;;10.27;6.78;;;;;;;23.85;50.11;100337.56;10406266;28;20059;-69
2022/10/30 15:35:02;;;;;;;10.88;6.70;;;;;;;23.62;51.51;100338.78;10405859;28;20065;-71
2022/10/30 15:40:15;;;;;;;10.23;6.68;;;;;;;23.45;52.96;100337.53;10403431;28;20140;-71
2022/10/30 15:45:24;;;;;;;10.15;6.82;;;;;;;23.24;53.84;100328.50;10405766;28;20048;-74
2022/10/30 15:50:26;;;;;;;9.30;6.97;;;;;;;23.09;54.93;100338.66;10406514;28;20061;-71
2022/10/30 15:55:30;;;;;;;9.40;7.20;;;;;;;22.85;55.91;100335.44;10402593;28;20045;-70
2022/10/30 16:00:34;;;;;;;12.70;8.40;;;;;;;22.62;56.64;100335.72;10376069;28;20052;-70
2022/10/30 16:05:36;;;;;;;12.27;9.23;;;;;;;22.36;57.25;100355.41;10400566;28;20618;-69
2022/10/30 16:10:45;;;;;;;11.15;7.47;;;;;;;22.16;58.81;100342.50;10371773;28;20064;-70
2022/10/30 16:15:46;;;;;;;8.13;6.80;;;;;;;22.05;58.80;100356.59;10374842;28;20052;-69
2022/10/30 16:20:53;;;;;;;13.15;7.03;;;;;;;21.84;59.67;100369.16;10372978;28;20088;-72
2022/10/30 16:25:57;;;;;;;10.35;6.85;;;;;;;21.68;60.06;100364.00;10379353;28;20061;-70
2022/10/30 16:31:01;;;;;;;13.40;7.68;;;;;;;21.53;61.22;100372.19;10375118;28;20547;-69
2022/10/30 16:36:04;;;;;;;8.88;6.63;;;;;;;21.44;61.31;100363.31;10373041;28;20527;-69
2022/10/30 16:41:12;;;;;;;14.75;8.27;;;;;;;21.27;62.07;100359.16;10365861;28;20459;-69
2022/10/30 16:46:13;;;;;;;11.93;8.95;;;;;;;21.19;62.63;100369.06;10371112;28;20140;-70
2022/10/30 16:51:16;;;;;;;12.27;8.38;;;;;;;21.06;62.76;100379.72;10371826;28;20056;-71
2022/10/30 16:56:27;;;;;;;11.98;8.95;;;;;;;20.91;63.86;100370.81;10367662;28;20060;-70
2022/10/30 17:01:28;;;;;;;12.63;9.30;;;;;;;20.75;63.89;100372.69;10373536;28;20068;-69
2022/10/30 17:06:44;;;;;;;14.00;9.23;;;;;;;20.68;64.43;100385.28;10368450;28;20060;-70
2022/10/30 17:11:59;;;;;;;14.30;10.27;;;;;;;20.58;64.91;100390.94;10373175;28;20427;-71
2022/10/30 17:17:00;;;;;;;19.30;14.52;;;;;;;20.46;65.33;100393.28;10372417;28;20054;-70
2022/10/30 17:22:06;;;;;;;14.43;11.10;;;;;;;20.33;65.72;100393.06;10408191;28;20335;-70
2022/10/30 17:27:26;;;;;;;20.67;12.57;;;;;;;20.21;66.77;100410.75;10373317;28;20287;-69
2022/10/30 17:32:41;;;;;;;18.40;12.10;;;;;;;20.04;67.31;100410.91;10403796;28;20490;-70
2022/10/30 17:37:42;;;;;;;16.30;12.32;;;;;;;19.93;67.24;100420.25;10405832;28;20500;-71
2022/10/30 17:42:44;;;;;;;14.52;11.15;;;;;;;19.87;67.75;100415.56;10402474;28;20048;-69
2022/10/30 17:47:45;;;;;;;16.75;11.98;;;;;;;19.72;67.89;100426.28;10390408;28;20055;-71
2022/10/30 17:52:47;;;;;;;15.50;10.70;;;;;;;19.58;69.05;100427.06;10364261;28;20052;-70
2022/10/30 17:57:48;;;;;;;16.42;11.15;;;;;;;19.51;69.31;100436.88;10370033;28;20060;-68
2022/10/30 18:02:49;;;;;;;14.55;10.60;;;;;;;19.49;69.34;100447.03;10369899;28;20644;-71
2022/10/30 18:07:51;;;;;;;16.25;11.20;;;;;;;19.44;69.50;100447.53;10374003;28;20067;-70
2022/10/30 18:12:52;;;;;;;14.15;10.75;;;;;;;19.32;70.20;100457.91;10368744;28;20186;-70
2022/10/30 18:17:54;;;;;;;16.20;14.60;;;;;;;19.25;70.36;100459.63;10410708;28;20049;-71
2022/10/30 18:22:55;;;;;;;15.98;12.02;;;;;;;19.15;70.85;100469.78;10408475;28;20060;-69
2022/10/30 18:27:57;;;;;;;13.32;10.00;;;;;;;18.99;71.46;100478.75;10393118;28;20161;-72
2022/10/30 18:32:59;;;;;;;13.93;10.60;;;;;;;19.06;71.69;100482.44;10415044;28;20059;-71
2022/10/30 18:38:01;;;;;;;16.33;10.23;;;;;;;18.97;71.13;100478.94;10383331;28;20061;-72
2022/10/30 18:43:03;;;;;;;18.00;11.13;;;;;;;18.82;72.09;100480.63;10397359;28;20421;-69
2022/10/30 18:48:09;;;;;;;14.32;9.43;;;;;;;18.73;72.24;100477.09;10404465;28;20280;-74
2022/10/30 18:53:17;;;;;;;12.70;9.95;;;;;;;18.67;72.78;100485.88;10407192;28;21145;-72
2022/10/30 18:58:19;;;;;;;15.80;11.02;;;;;;;18.62;72.72;100494.47;10387100;28;20048;-69
2022/10/30 19:03:20;;;;;;;20.60;16.75;;;;;;;18.50;73.60;100503.94;10402870;28;20056;-70
2022/10/30 19:08:21;;;;;;;22.33;19.95;;;;;;;18.40;73.77;100497.88;10406371;28;20083;-72
2022/10/30 19:13:22;;;;;;;24.55;17.40;;;;;;;18.33;74.09;100498.53;10408793;28;20044;-71
2022/10/30 19:18:24;;;;;;;22.50;18.90;;;;;;;18.28;74.46;100500.88;10387683;28;20083;-70
2022/10/30 19:23:26;;;;;;;18.88;14.85;;;;;;;18.10;75.17;100497.50;10407465;28;20088;-70
2022/10/30 19:28:29;;;;;;;18.58;14.55;;;;;;;17.97;76.11;100504.25;10407619;28;20341;-70
2022/10/30 19:33:30;;;;;;;19.23;14.55;;;;;;;17.91;76.40;100504.91;10405507;28;20127;-71
2022/10/30 19:38:32;;;;;;;22.65;14.05;;;;;;;17.95;76.29;100491.94;10404579;28;20067;-68
2022/10/30 19:43:33;;;;;;;17.98;14.30;;;;;;;17.94;76.16;100492.94;10388382;28;20081;-68
2022/10/30 19:48:35;;;;;;;15.35;13.63;;;;;;;17.76;76.80;100501.09;10370054;28;20056;-69
2022/10/30 19:53:56;;;;;;;19.52;14.00;;;;;;;17.82;76.56;100505.88;10363610;28;20072;-73
2022/10/30 19:58:57;;;;;;;19.05;14.38;;;;;;;17.77;76.60;100511.72;10364453;28;20060;-68
2022/10/30 20:03:59;;;;;;;17.25;14.00;;;;;;;17.67;77.07;100514.56;10367925;28;20468;-70
2022/10/30 20:09:01;;;;;;;14.73;12.75;;;;;;;17.66;77.32;100520.94;10366319;28;20059;-69
2022/10/30 20:14:02;;;;;;;16.02;12.55;;;;;;;17.53;78.25;100523.25;10371234;28;20053;-70
2022/10/30 20:19:27;;;;;;;20.02;13.25;;;;;;;17.56;77.85;100533.69;10366969;28;20057;-73
2022/10/30 20:24:28;;;;;;;17.10;13.38;;;;;;;17.43;78.61;100533.28;10370942;28;20057;-74
2022/10/30 20:29:30;;;;;;;15.38;13.00;;;;;;;17.40;79.00;100529.09;10366186;28;20049;-73
2022/10/30 20:34:31;;;;;;;16.05;11.77;;;;;;;17.33;79.68;100546.06;10386108;28;20062;-71
2022/10/30 20:39:32;;;;;;;14.00;11.40;;;;;;;17.31;79.76;100535.44;10372971;28;20059;-68
2022/10/30 20:44:34;;;;;;;15.10;11.73;;;;;;;17.22;79.72;100545.31;10367915;28;20616;-69
2022/10/30 20:49:35;;;;;;;14.43;12.63;;;;;;;17.20;79.24;100550.00;10370546;28;20083;-70
2022/10/30 20:54:36;;;;;;;14.45;12.23;;;;;;;17.16;79.66;100542.41;10369195;28;20053;-69
2022/10/30 20:59:38;;;;;;;13.93;11.13;;;;;;;17.13;80.19;100549.81;10366561;28;20166;-72
2022/10/30 21:04:39;;;;;;;14.10;11.38;;;;;;;17.09;80.33;100561.03;10373905;28;20064;-72
2022/10/30 21:09:40;;;;;;;18.25;11.80;;;;;;;17.04;80.08;100560.66;10432814;28;20045;-72
2022/10/30 21:14:42;;;;;;;15.73;12.07;;;;;;;16.91;80.22;100561.94;10439759;28;20053;-71
2022/10/30 21:19:43;;;;;;;16.60;11.98;;;;;;;16.98;80.28;100566.66;10435877;28;20063;-71
2022/10/30 21:24:44;;;;;;;14.02;12.05;;;;;;;16.86;80.37;100566.03;10434701;28;20055;-73
2022/10/30 21:29:45;;;;;;;20.10;13.80;;;;;;;16.73;80.79;100566.47;10431710;28;20049;-72
2022/10/30 21:34:47;;;;;;;16.45;12.27;;;;;;;16.63;80.70;100565.72;10439091;28;20075;-71
2022/10/30 21:39:48;;;;;;;16.27;12.05;;;;;;;16.57;81.14;100559.97;10436056;28;20979;-73
2022/10/30 21:44:49;;;;;;;15.15;12.98;;;;;;;16.65;81.24;100566.38;10434193;28;20053;-72
2022/10/30 21:49:50;;;;;;;18.33;13.48;;;;;;;16.54;81.38;100568.34;10436811;28;20044;-72
2022/10/30 21:54:52;;;;;;;16.40;13.57;;;;;;;16.51;81.08;100567.78;10433216;28;20052;-73
2022/10/30 21:59:53;;;;;;;18.52;13.18;;;;;;;16.34;81.42;100566.81;10437801;28;20128;-72
2022/10/30 22:04:54;;;;;;;15.93;13.15;;;;;;;16.25;81.79;100564.03;10429574;28;20490;-72
2022/10/30 22:09:55;;;;;;;15.48;13.00;;;;;;;16.14;82.14;100556.22;10429106;28;20056;-69
2022/10/30 22:14:57;;;;;;;14.98;12.60;;;;;;;16.05;83.07;100559.81;10417031;28;20056;-70
2022/10/30 22:19:58;;;;;;;16.20;13.60;;;;;;;15.85;83.61;100557.25;10436031;28;20053;-71
2022/10/30 22:24:59;;;;;;;18.60;15.98;;;;;;;15.79;84.11;100565.88;10432440;28;20235;-73
2022/10/30 22:30:00;;;;;;;17.98;14.38;;;;;;;15.70;83.79;100550.66;10410431;28;20802;-72
2022/10/30 22:35:02;;;;;;;13.55;12.07;;;;;;;15.81;83.70;100563.06;10435601;28;20505;-71
2022/10/30 22:40:04;;;;;;;14.50;11.38;;;;;;;15.82;83.09;100564.75;10417599;28;20037;-72
2022/10/30 22:45:06;;;;;;;13.10;11.57;;;;;;;15.64;82.44;100560.16;10432165;28;20060;-73
2022/10/30 22:50:07;;;;;;;12.93;11.55;;;;;;;15.53;83.51;100563.88;10429161;28;20052;-73
2022/10/30 22:55:08;;;;;;;14.75;12.40;;;;;;;15.44;83.41;100562.06;10427216;28;20057;-71
2022/10/30 23:00:10;;;;;;;26.13;20.38;;;;;;;15.35;83.58;100563.81;10413847;28;20082;-74
2022/10/30 23:05:16;;;;;;;17.17;12.55;;;;;;;15.27;83.18;100570.91;10431025;28;20048;-72
2022/10/30 23:10:18;;;;;;;12.85;11.38;;;;;;;15.19;83.68;100579.66;10430406;28;20044;-73